Time;durP1;ratioP1;P1;durP2;ratioP2;P2;SDS_P1;SDS_P2;PMS_P1;PMS_P2;Temp;Humidity;BMP_temperature;BMP_pressure;BME280_temperature;BME280_humidity;BME280_pressure;Samples;Min_cycle;Max_cycle;Signal;HPM_P1;HPM_P2
2021/10/02 00:49:19;;;;;;;6.07;3.53;;;;;;;15.32;61.07;100070.63;10273926;28;20062;-62
2021/10/02 00:54:21;;;;;;;5.90;4.13;;;;;;;15.30;61.70;100067.28;10282814;28;20106;-62
2021/10/02 00:59:22;;;;;;;5.03;3.90;;;;;;;15.19;62.06;100071.09;10286208;28;20067;-63
2021/10/02 01:04:51;;;;;;;5.13;3.60;;;;;;;15.13;61.94;100068.19;10287100;28;20520;-62
2021/10/02 01:10:31;;;;;;;6.13;3.70;;;;;;;15.06;62.10;100067.13;10283788;28;20128;-62
2021/10/02 01:15:47;;;;;;;5.20;3.40;;;;;;;15.06;62.40;100057.25;10274527;28;20055;-62
2021/10/02 01:21:21;;;;;;;3.50;3.10;;;;;;;15.11;62.98;100052.25;10285700;28;20124;-62
2021/10/02 01:26:39;;;;;;;5.30;3.28;;;;;;;15.12;63.08;100037.84;10284477;28;20069;-62
2021/10/02 01:31:58;;;;;;;5.25;2.70;;;;;;;15.23;62.30;100039.41;10281187;28;20077;-62
2021/10/02 01:47:50;;;;;;;4.53;3.05;;;;;;;14.92;63.56;100045.28;10265048;28;20074;-56
2021/10/02 01:52:55;;;;;;;4.82;3.15;;;;;;;14.84;64.06;100035.31;10277558;28;20049;-56
2021/10/02 01:58:00;;;;;;;3.55;3.17;;;;;;;14.94;64.29;100040.59;10286221;28;20630;-56
2021/10/02 02:03:05;;;;;;;6.32;3.13;;;;;;;14.85;65.04;100028.97;10308285;28;20066;-57
2021/10/02 02:08:11;;;;;;;;;;;;;;;14.79;65.04;100021.56;10309691;28;20100;-54
2021/10/02 02:13:15;;;;;;;5.22;3.10;;;;;;;14.73;65.42;100021.34;10293969;28;19973;-56
2021/10/02 02:18:21;;;;;;;5.07;2.75;;;;;;;14.82;65.45;100015.88;10303615;28;20105;-56
2021/10/02 02:23:25;;;;;;;3.38;2.60;;;;;;;14.70;65.60;100005.56;10309547;28;20117;-56
2021/10/02 02:28:27;;;;;;;5.80;2.95;;;;;;;14.79;65.62;100018.88;10305536;28;20050;-56
2021/10/02 02:33:29;;;;;;;3.92;2.60;;;;;;;14.66;66.63;99991.66;10316414;28;20141;-61
2021/10/02 02:38:32;;;;;;;2.28;2.08;;;;;;;14.83;67.88;100000.63;10313337;28;20055;-56
2021/10/02 02:43:34;;;;;;;4.20;2.80;;;;;;;14.86;67.61;99994.97;10277823;28;20133;-56
2021/10/02 02:48:45;;;;;;;4.55;2.40;;;;;;;14.74;67.60;99988.19;10305710;28;20142;-56
2021/10/02 02:54:00;;;;;;;3.70;2.10;;;;;;;14.81;67.74;100006.16;10281174;28;20121;-56
2021/10/02 02:59:08;;;;;;;4.57;2.30;;;;;;;14.74;68.33;100002.44;10267820;28;20059;-56
2021/10/02 03:04:15;;;;;;;3.70;2.28;;;;;;;14.59;68.94;99994.09;10261372;28;20049;-60
2021/10/02 03:09:17;;;;;;;2.13;1.75;;;;;;;14.83;67.94;100003.31;10275933;28;20070;-56
2021/10/02 03:14:21;;;;;;;3.13;2.25;;;;;;;14.82;67.82;100023.09;10277424;28;20042;-57
2021/10/02 03:19:23;;;;;;;3.93;2.60;;;;;;;14.88;68.90;100008.19;10283354;28;20050;-56
2021/10/02 03:24:26;;;;;;;3.85;2.65;;;;;;;14.83;68.67;100009.53;10276980;28;20085;-59
2021/10/02 03:29:28;;;;;;;5.30;2.67;;;;;;;14.85;68.06;100009.38;10283308;28;20699;-57
2021/10/02 03:34:30;;;;;;;4.35;2.97;;;;;;;14.77;68.23;100001.28;10277674;28;20140;-58
2021/10/02 03:39:32;;;;;;;3.13;2.42;;;;;;;14.71;69.11;100013.44;10279176;28;20229;-57
2021/10/02 03:44:34;;;;;;;3.33;2.40;;;;;;;14.63;69.11;100002.69;10266747;28;20102;-57
2021/10/02 03:49:37;;;;;;;2.70;2.10;;;;;;;14.71;68.83;100002.72;10282335;28;20145;-57
2021/10/02 03:54:38;;;;;;;4.38;2.83;;;;;;;14.75;68.72;99998.75;10280735;28;20101;-57
2021/10/02 03:59:40;;;;;;;3.78;2.70;;;;;;;14.72;68.81;99998.22;10279544;28;20113;-57
2021/10/02 04:04:41;;;;;;;4.35;2.28;;;;;;;14.73;69.25;100011.47;10264061;28;20051;-55
2021/10/02 04:09:43;;;;;;;4.47;2.35;;;;;;;14.77;68.72;100018.22;10279937;28;20042;-56
2021/10/02 04:14:47;;;;;;;3.78;1.77;;;;;;;14.78;69.08;100002.97;10280355;28;20125;-56
2021/10/02 04:19:48;;;;;;;5.07;2.45;;;;;;;14.81;68.66;100003.47;10285474;28;20078;-56
2021/10/02 04:24:50;;;;;;;4.93;2.28;;;;;;;14.87;68.74;100011.91;10275678;28;20521;-56
2021/10/02 04:29:51;;;;;;;5.57;2.35;;;;;;;14.88;69.05;100014.44;10277305;28;20133;-56
2021/10/02 04:34:53;;;;;;;5.70;1.88;;;;;;;14.80;68.86;99992.91;10274073;28;20141;-55
2021/10/02 04:39:54;;;;;;;2.85;2.00;;;;;;;14.84;68.87;99996.97;10281006;28;20050;-56
2021/10/02 04:44:56;;;;;;;5.53;2.40;;;;;;;14.73;69.14;99997.25;10281327;28;20113;-56
2021/10/02 04:49:57;;;;;;;3.80;2.03;;;;;;;14.72;69.50;100003.59;10282563;28;20129;-56
2021/10/02 04:54:58;;;;;;;4.50;2.13;;;;;;;14.71;69.76;100000.06;10278693;28;20158;-56
2021/10/02 05:00:00;;;;;;;3.63;1.98;;;;;;;14.78;69.18;99985.03;10279395;28;20055;-56
2021/10/02 05:05:02;;;;;;;2.35;1.90;;;;;;;14.78;68.86;99982.34;10279487;28;20132;-55
2021/10/02 05:10:04;;;;;;;3.97;1.88;;;;;;;14.81;68.83;99984.72;10272602;28;20082;-56
2021/10/02 05:15:05;;;;;;;3.40;2.00;;;;;;;14.80;68.56;99985.75;10271981;28;20468;-55
2021/10/02 05:20:07;;;;;;;6.47;1.90;;;;;;;14.81;68.62;99981.22;10278577;28;20117;-55
2021/10/02 05:25:09;;;;;;;3.83;2.20;;;;;;;14.85;68.65;99991.44;10279165;28;20046;-55
2021/10/02 05:30:10;;;;;;;2.85;1.70;;;;;;;14.98;69.17;99998.22;10281966;28;20081;-55
2021/10/02 05:35:12;;;;;;;4.30;2.10;;;;;;;15.03;68.50;100003.97;10275516;28;20085;-55
2021/10/02 05:40:14;;;;;;;4.30;2.10;;;;;;;14.99;68.09;100016.00;10278898;28;20063;-56
2021/10/02 05:45:16;;;;;;;4.47;1.90;;;;;;;14.93;68.80;100005.91;10280814;28;20053;-57
2021/10/02 05:50:17;;;;;;;2.75;1.65;;;;;;;14.93;68.49;100001.38;10276547;28;20515;-56
2021/10/02 05:55:18;;;;;;;2.88;2.03;;;;;;;15.03;68.45;100010.16;10280889;28;20748;-56
2021/10/02 06:00:20;;;;;;;5.07;1.73;;;;;;;15.07;68.23;100013.34;10276254;28;20085;-56
2021/10/02 06:05:26;;;;;;;3.10;2.10;;;;;;;15.16;67.98;100011.56;10278777;28;20260;-56
2021/10/02 06:10:27;;;;;;;2.85;2.22;;;;;;;15.22;68.34;100000.19;10278054;28;20053;-56
2021/10/02 06:15:29;;;;;;;5.97;1.90;;;;;;;15.32;67.42;100014.31;10267244;28;20050;-57
2021/10/02 06:20:30;;;;;;;4.63;2.10;;;;;;;15.39;67.25;100006.50;10279516;28;20062;-56
2021/10/02 06:25:32;;;;;;;5.68;2.50;;;;;;;15.47;67.43;100014.56;10278287;28;20141;-56
2021/10/02 06:30:34;;;;;;;3.92;2.42;;;;;;;15.44;67.35;100028.28;10273048;28;20070;-57
2021/10/02 06:35:35;;;;;;;8.27;2.50;;;;;;;15.27;68.02;100018.50;10234633;28;20531;-56
2021/10/02 06:40:40;;;;;;;7.13;2.63;;;;;;;15.27;68.60;100019.34;10242367;28;20134;-56
2021/10/02 06:45:42;;;;;;;3.60;2.20;;;;;;;15.18;68.41;100010.41;10247771;28;20064;-56
2021/10/02 06:50:43;;;;;;;4.80;2.25;;;;;;;15.40;68.18;100015.38;10253385;28;20054;-56
2021/10/02 06:55:45;;;;;;;6.82;2.83;;;;;;;15.36;68.47;100012.19;10251440;28;20082;-56
2021/10/02 07:00:46;;;;;;;4.50;2.63;;;;;;;15.36;69.19;100029.09;10251763;28;20046;-57
2021/10/02 07:05:48;;;;;;;4.65;2.50;;;;;;;15.45;69.00;100023.78;10250615;28;20058;-57
2021/10/02 07:10:50;;;;;;;4.32;2.65;;;;;;;15.43;69.50;100023.09;10251666;28;20548;-58
2021/10/02 07:15:51;;;;;;;4.57;2.63;;;;;;;15.64;68.47;100039.63;10252712;28;20049;-56
2021/10/02 07:20:53;;;;;;;3.17;2.30;;;;;;;15.90;67.49;100023.47;10253540;28;20065;-56
2021/10/02 07:25:54;;;;;;;6.65;2.90;;;;;;;16.05;65.81;100030.91;10251503;28;20121;-55
2021/10/02 07:30:55;;;;;;;6.00;2.72;;;;;;;15.89;65.08;99991.44;10250860;28;20178;-56
2021/10/02 07:35:57;;;;;;;4.03;2.63;;;;;;;16.19;64.54;100022.19;10249798;28;20430;-58
2021/10/02 07:40:59;;;;;;;2.72;2.53;;;;;;;16.48;64.37;100015.47;10252291;28;20053;-56
2021/10/02 07:46:01;;;;;;;3.80;2.45;;;;;;;16.62;64.15;100014.00;10324984;23;20144;-61
2021/10/02 07:51:03;;;;;;;3.30;1.90;;;;;;;16.84;63.59;100012.44;10364894;28;20085;-60
2021/10/02 07:56:07;;;;;;;3.47;1.85;;;;;;;17.31;62.23;100008.19;10400761;28;20502;-62
2021/10/02 08:01:08;;;;;;;4.35;2.30;;;;;;;17.45;61.12;100003.91;10402531;28;21077;-63
2021/10/02 08:06:10;;;;;;;4.55;2.28;;;;;;;17.56;59.90;99998.13;10405786;28;20494;-62
2021/10/02 08:11:11;;;;;;;3.88;2.08;;;;;;;17.58;59.32;100001.50;10402785;28;20124;-62
2021/10/02 08:16:16;;;;;;;5.25;1.60;;;;;;;17.30;59.66;99985.78;10404977;28;20049;-60
2021/10/02 08:21:18;;;;;;;2.72;1.52;;;;;;;17.53;58.86;99989.59;10403770;28;20144;-61
2021/10/02 08:26:21;;;;;;;5.60;1.55;;;;;;;17.59;57.85;99981.63;10402639;28;20055;-61
2021/10/02 08:31:24;;;;;;;4.28;1.80;;;;;;;17.83;56.87;99971.75;10403580;28;20136;-61
2021/10/02 08:36:25;;;;;;;2.38;1.58;;;;;;;18.08;56.80;99961.69;10400732;28;20063;-61
2021/10/02 08:41:27;;;;;;;4.10;2.03;;;;;;;18.20;56.60;99965.63;10404475;28;20529;-61
2021/10/02 08:46:29;;;;;;;2.15;1.95;;;;;;;18.48;55.08;99967.78;10403136;28;20053;-62
2021/10/02 08:51:32;;;;;;;3.70;1.67;;;;;;;19.30;52.02;99968.78;10391793;28;20096;-61
2021/10/02 08:56:36;;;;;;;2.35;1.50;;;;;;;19.28;51.47;99965.44;10396600;28;20071;-61
2021/10/02 09:01:39;;;;;;;3.25;1.52;;;;;;;19.39;51.91;99951.47;10394573;28;20065;-60
2021/10/02 09:06:41;;;;;;;5.93;2.28;;;;;;;19.03;51.75;99957.63;10397079;28;20049;-60
2021/10/02 09:11:43;;;;;;;2.83;1.30;;;;;;;19.43;50.88;99944.66;10395916;28;20173;-61
2021/10/02 09:16:44;;;;;;;3.38;1.50;;;;;;;19.51;49.92;99924.81;10395823;28;20061;-61
2021/10/02 09:21:55;;;;;;;3.08;1.30;;;;;;;20.04;49.50;99913.78;10400986;28;20470;-59
2021/10/02 09:26:57;;;;;;;2.53;1.10;;;;;;;20.32;48.19;99902.16;10403963;28;20696;-61
2021/10/02 09:31:58;;;;;;;3.10;1.48;;;;;;;20.72;46.90;99897.06;10398473;28;20127;-61
2021/10/02 09:37:01;;;;;;;2.63;1.15;;;;;;;21.09;46.15;99908.53;10402802;28;20489;-60
2021/10/02 09:42:03;;;;;;;2.83;1.10;;;;;;;21.22;45.83;99893.38;10406118;28;20498;-61
2021/10/02 09:47:13;;;;;;;3.17;1.10;;;;;;;21.66;44.34;99889.34;10405141;28;20383;-62
2021/10/02 09:52:32;;;;;;;2.45;1.13;;;;;;;22.51;42.55;99897.75;10408062;28;20560;-61
2021/10/02 09:57:41;;;;;;;2.80;1.40;;;;;;;24.02;39.51;99899.47;10360098;28;20477;-60
2021/10/02 10:02:44;;;;;;;3.35;1.40;;;;;;;24.10;38.88;99891.06;10361676;28;20200;-61
2021/10/02 10:07:53;;;;;;;;;;;;;;;23.74;39.58;99873.53;10360022;28;20191;-60
2021/10/02 10:12:54;;;;;;;2.70;1.10;;;;;;;24.08;40.07;99863.25;10402362;28;20182;-62
2021/10/02 10:17:57;;;;;;;2.33;1.17;;;;;;;24.12;39.30;99848.16;10399868;28;20053;-62
2021/10/02 10:23:00;;;;;;;3.17;1.10;;;;;;;24.89;38.15;99842.38;10399107;28;20052;-62
2021/10/02 10:28:06;;;;;;;2.85;1.30;;;;;;;25.31;36.74;99838.94;10400951;28;20466;-62
2021/10/02 10:33:10;;;;;;;2.47;1.33;;;;;;;27.61;33.79;99828.88;10398402;28;20053;-61
2021/10/02 10:38:15;;;;;;;1.80;1.15;;;;;;;29.44;29.80;99828.19;10392082;28;20087;-62
2021/10/02 10:43:17;;;;;;;1.98;1.27;;;;;;;31.32;27.84;99817.00;10388839;28;20200;-61
2021/10/02 10:48:20;;;;;;;;;;;;;;;32.30;25.00;99796.97;10393132;28;20049;-62
2021/10/02 10:53:21;;;;;;;2.65;1.00;;;;;;;32.51;24.88;99789.47;10396612;28;20273;-61
2021/10/02 10:58:31;;;;;;;3.67;1.08;;;;;;;32.97;25.13;99792.03;10396358;28;20139;-62
2021/10/02 11:03:44;;;;;;;3.22;0.98;;;;;;;31.83;25.23;99786.00;10397794;28;20593;-60
2021/10/02 11:09:06;;;;;;;2.55;0.80;;;;;;;31.83;25.10;99782.44;10396352;28;20191;-64
2021/10/02 11:14:07;;;;;;;1.45;0.80;;;;;;;31.70;25.90;99783.78;10355569;28;20520;-62
2021/10/02 11:19:27;;;;;;;;;;;;;;;32.72;24.47;99776.44;10357704;28;20100;-61
2021/10/02 11:24:40;;;;;;;2.60;1.08;;;;;;;34.78;21.13;99753.44;10354997;28;20366;-61
2021/10/02 11:29:44;;;;;;;4.88;1.65;;;;;;;34.35;21.47;99745.13;10344182;28;20147;-62
2021/10/02 11:35:14;;;;;;;2.17;0.88;;;;;;;34.16;21.92;99737.56;10363102;28;20442;-62
2021/10/02 11:40:44;;;;;;;2.67;1.20;;;;;;;36.68;18.89;99723.56;10364069;28;20751;-66
2021/10/02 11:45:47;;;;;;;1.60;0.98;;;;;;;36.54;18.58;99699.50;10408926;28;22799;-63
2021/10/02 11:51:25;;;;;;;2.03;0.75;;;;;;;39.81;15.66;99693.63;10412276;28;20573;-64
2021/10/02 11:56:29;;;;;;;2.53;0.85;;;;;;;38.23;17.05;99687.25;10411310;28;20482;-63
2021/10/02 12:01:33;;;;;;;2.45;0.85;;;;;;;34.07;21.20;99686.88;10369125;28;20243;-62
2021/10/02 12:06:38;;;;;;;7.07;2.10;;;;;;;28.95;27.51;99695.88;10367405;28;20056;-64
2021/10/02 12:11:42;;;;;;;2.05;1.15;;;;;;;29.38;27.53;99688.56;10348993;28;20136;-63
2021/10/02 12:16:53;;;;;;;2.22;1.40;;;;;;;28.28;28.31;99673.19;10352903;28;20124;-63
2021/10/02 12:22:01;;;;;;;1.63;1.27;;;;;;;32.06;23.00;99652.44;10356209;28;20041;-64
2021/10/02 12:27:18;;;;;;;1.42;1.17;;;;;;;33.79;20.98;99661.78;10351628;28;20199;-61
2021/10/02 12:32:22;;;;;;;1.42;1.20;;;;;;;37.28;17.93;99656.75;10381447;28;20083;-64
2021/10/02 12:37:26;;;;;;;0.82;0.70;;;;;;;38.02;17.02;99669.19;10398871;28;20057;-63
2021/10/02 12:42:33;;;;;;;1.65;0.93;;;;;;;36.32;17.67;99644.00;10395810;28;20056;-62
2021/10/02 12:47:36;;;;;;;0.98;0.80;;;;;;;36.15;17.77;99645.41;10392896;28;20094;-64
2021/10/02 12:52:38;;;;;;;1.30;0.52;;;;;;;37.15;16.94;99635.41;10383257;28;20052;-64
2021/10/02 12:57:40;;;;;;;1.52;1.05;;;;;;;39.06;15.16;99631.53;10399367;28;20041;-62
2021/10/02 13:02:44;;;;;;;3.70;0.90;;;;;;;38.22;15.97;99644.75;10396724;28;20128;-62
2021/10/02 13:07:49;;;;;;;2.90;1.30;;;;;;;35.41;17.87;99632.47;10399306;28;20126;-64
2021/10/02 13:12:57;;;;;;;1.85;0.80;;;;;;;32.72;20.92;99619.41;10402900;28;20067;-62
2021/10/02 13:18:23;;;;;;;2.28;1.13;;;;;;;31.81;21.89;99619.53;10402583;28;20045;-63
2021/10/02 13:23:40;;;;;;;0.93;0.80;;;;;;;33.92;20.02;99593.22;10400313;28;20049;-63
2021/10/02 13:28:45;;;;;;;1.65;0.90;;;;;;;33.96;20.55;99595.09;10400929;28;20874;-62
2021/10/02 13:34:03;;;;;;;1.48;0.80;;;;;;;32.78;21.52;99596.22;10398529;28;20068;-63
2021/10/02 13:39:12;;;;;;;1.63;1.45;;;;;;;30.98;23.62;99580.31;10395788;28;20600;-63
2021/10/02 13:44:28;;;;;;;1.70;1.15;;;;;;;30.05;25.11;99587.53;10400365;28;20692;-65
2021/10/02 13:49:30;;;;;;;2.67;1.23;;;;;;;30.49;24.93;99563.25;10360611;28;20874;-62
2021/10/02 13:54:32;;;;;;;2.88;1.70;;;;;;;31.08;23.72;99549.28;10358635;28;20491;-63
2021/10/02 13:59:34;;;;;;;3.20;1.17;;;;;;;31.54;23.56;99533.50;10351848;28;20144;-63
2021/10/02 14:04:36;;;;;;;2.58;1.05;;;;;;;30.44;24.95;99519.31;10353829;28;20136;-62
2021/10/02 14:09:37;;;;;;;1.13;1.02;;;;;;;29.71;26.18;99508.38;10354852;28;20069;-60
2021/10/02 14:14:40;;;;;;;3.45;1.30;;;;;;;29.19;26.64;99501.81;10347980;28;20068;-64
2021/10/02 14:19:42;;;;;;;1.45;0.82;;;;;;;28.29;28.18;99488.78;10340388;28;21020;-63
2021/10/02 14:24:44;;;;;;;3.15;0.88;;;;;;;27.01;29.72;99480.63;10337694;28;20064;-60
2021/10/02 14:29:45;;;;;;;1.33;1.10;;;;;;;26.54;30.59;99475.50;10343852;28;20053;-60
2021/10/02 14:34:47;;;;;;;2.28;1.27;;;;;;;25.76;32.13;99482.28;10345223;28;20096;-60
2021/10/02 14:39:51;;;;;;;1.60;1.00;;;;;;;24.64;34.04;99470.53;10351452;28;20053;-64
2021/10/02 14:44:53;;;;;;;2.15;1.30;;;;;;;24.16;34.68;99449.72;10355878;28;20369;-60
2021/10/02 14:49:54;;;;;;;3.20;1.10;;;;;;;24.00;35.48;99453.94;10355635;28;20049;-62
2021/10/02 14:54:56;;;;;;;2.92;1.33;;;;;;;23.72;35.86;99451.78;10353737;28;20339;-60
2021/10/02 14:59:59;;;;;;;1.92;1.48;;;;;;;23.28;36.72;99439.16;10357200;28;20236;-60
2021/10/02 15:05:00;;;;;;;;;;;;;;;22.93;37.72;99434.28;10356832;28;20058;-60
2021/10/02 15:10:02;;;;;;;3.58;1.20;;;;;;;22.91;37.91;99441.81;10356926;28;19952;-61
2021/10/02 15:15:06;;;;;;;1.40;1.02;;;;;;;22.53;38.40;99434.69;10350383;28;20658;-61
2021/10/02 15:20:08;;;;;;;2.63;1.20;;;;;;;22.46;39.02;99430.34;10350135;28;20076;-61
2021/10/02 15:25:12;;;;;;;3.90;1.58;;;;;;;22.36;39.27;99420.81;10372793;28;20069;-61
2021/10/02 15:30:13;;;;;;;2.80;1.20;;;;;;;22.15;39.73;99422.00;10375093;28;20237;-60
2021/10/02 15:35:15;;;;;;;2.33;1.58;;;;;;;22.16;40.16;99420.94;10374626;28;20045;-61
2021/10/02 15:40:18;;;;;;;2.05;1.25;;;;;;;22.14;39.91;99409.47;10369988;28;20177;-60
2021/10/02 15:45:22;;;;;;;2.83;1.42;;;;;;;22.14;40.43;99406.78;10370490;28;20103;-61
2021/10/02 15:50:25;;;;;;;3.28;1.50;;;;;;;22.05;40.91;99395.41;10371430;28;20153;-61
2021/10/02 15:55:27;;;;;;;2.38;1.65;;;;;;;21.85;41.17;99387.38;10371276;28;20454;-61
2021/10/02 16:00:29;;;;;;;2.10;1.48;;;;;;;21.68;41.52;99370.03;10369141;28;20062;-61
2021/10/02 16:05:36;;;;;;;4.22;1.65;;;;;;;21.47;41.79;99366.56;10367690;28;20045;-60
2021/10/02 16:10:39;;;;;;;2.55;1.90;;;;;;;21.35;41.71;99358.28;10373668;28;20045;-61
2021/10/02 16:15:42;;;;;;;1.60;1.40;;;;;;;21.18;41.89;99368.78;10350365;28;20128;-59
2021/10/02 16:20:44;;;;;;;1.67;1.45;;;;;;;21.23;41.91;99364.56;10335988;28;20275;-59
2021/10/02 16:25:45;;;;;;;2.92;1.90;;;;;;;21.18;42.19;99347.13;10348505;28;20116;-60
2021/10/02 16:30:47;;;;;;;3.55;2.15;;;;;;;21.06;42.31;99332.59;10334849;28;20356;-61
2021/10/02 16:35:49;;;;;;;2.80;1.80;;;;;;;20.96;42.43;99326.84;10337923;28;20524;-61
2021/10/02 16:40:51;;;;;;;1.58;1.42;;;;;;;20.81;43.21;99313.56;10338020;28;20551;-60
2021/10/02 16:45:53;;;;;;;3.63;1.40;;;;;;;20.68;43.82;99297.38;10334782;28;20049;-59
2021/10/02 16:50:56;;;;;;;1.57;1.23;;;;;;;20.57;44.42;99296.13;10342033;28;20082;-60
2021/10/02 16:55:59;;;;;;;2.13;1.80;;;;;;;20.49;44.50;99281.81;10331058;28;20045;-59
2021/10/02 17:01:02;;;;;;;2.15;1.50;;;;;;;20.41;44.98;99275.78;10354057;28;20140;-61
2021/10/02 17:06:04;;;;;;;3.28;1.80;;;;;;;20.35;45.54;99268.53;10351070;23;20398;-57
2021/10/02 17:11:06;;;;;;;2.22;2.00;;;;;;;20.22;46.04;99258.56;10320355;28;20056;-57
2021/10/02 17:16:08;;;;;;;3.00;1.88;;;;;;;20.09;46.64;99252.16;10312068;28;20054;-59
2021/10/02 17:21:10;;;;;;;2.70;2.00;;;;;;;20.08;46.85;99263.16;10321881;28;20143;-55
2021/10/02 17:26:12;;;;;;;3.63;2.40;;;;;;;19.78;47.43;99217.69;10321415;28;20136;-56
2021/10/02 17:31:13;;;;;;;4.05;3.30;;;;;;;19.97;48.33;99248.44;10319924;28;20129;-56
2021/10/02 17:36:16;;;;;;;3.50;3.13;;;;;;;19.89;48.88;99251.34;10320284;28;20068;-56
2021/10/02 17:41:17;;;;;;;4.13;2.83;;;;;;;19.83;49.04;99235.97;10321725;28;20049;-57
2021/10/02 17:46:19;;;;;;;3.97;3.58;;;;;;;19.77;49.37;99243.00;10319655;28;20132;-56
2021/10/02 17:51:22;;;;;;;4.60;3.45;;;;;;;19.79;49.75;99240.97;10323443;28;20503;-57
2021/10/02 17:56:23;;;;;;;4.90;4.40;;;;;;;19.78;50.31;99237.41;10319138;28;20128;-56
2021/10/02 18:01:25;;;;;;;5.95;3.60;;;;;;;19.80;50.27;99231.00;10321677;28;20061;-60
2021/10/02 18:06:28;;;;;;;5.40;3.58;;;;;;;19.72;51.04;99224.72;10319198;28;20146;-59
2021/10/02 18:11:29;;;;;;;7.63;5.70;;;;;;;19.72;51.04;99230.13;10320428;28;20124;-57
2021/10/02 18:16:31;;;;;;;9.13;4.80;;;;;;;19.73;51.36;99222.88;10322764;28;20046;-57
2021/10/02 18:21:32;;;;;;;6.22;3.60;;;;;;;19.69;51.37;99214.34;10320162;28;20129;-59
2021/10/02 18:26:38;;;;;;;4.15;3.55;;;;;;;19.71;52.08;99228.50;10311934;28;20243;-60
2021/10/02 18:31:39;;;;;;;6.95;4.78;;;;;;;19.63;51.54;99195.47;10319622;28;20080;-57
2021/10/02 18:36:40;;;;;;;6.65;5.30;;;;;;;19.74;51.87;99205.63;10320469;28;20061;-59
2021/10/02 18:41:42;;;;;;;6.57;5.20;;;;;;;19.64;51.74;99195.25;10327560;28;20668;-57
2021/10/02 18:46:43;;;;;;;6.38;4.70;;;;;;;19.61;52.33;99188.41;10325014;28;20137;-58
2021/10/02 18:51:49;;;;;;;3.95;3.45;;;;;;;19.64;52.23;99202.53;10329984;28;20868;-56
2021/10/02 18:56:52;;;;;;;4.97;4.10;;;;;;;19.66;53.05;99182.38;10326877;28;20125;-59
2021/10/02 19:01:54;;;;;;;6.00;4.87;;;;;;;19.62;52.78;99186.53;10327938;28;20193;-64
2021/10/02 19:06:56;;;;;;;9.75;5.47;;;;;;;19.60;52.74;99175.94;10324857;28;20053;-60
2021/10/02 19:11:58;;;;;;;5.88;4.90;;;;;;;19.58;53.10;99179.91;10338503;28;20058;-58
2021/10/02 19:16:59;;;;;;;8.65;4.88;;;;;;;19.55;53.08;99178.44;10338956;28;20121;-56
2021/10/02 19:22:02;;;;;;;6.22;5.38;;;;;;;19.53;53.33;99172.44;10340072;28;20514;-60
2021/10/02 19:27:04;;;;;;;5.43;4.63;;;;;;;19.54;53.91;99159.75;10339333;28;20831;-59
2021/10/02 19:32:07;;;;;;;7.97;4.22;;;;;;;19.45;53.74;99164.53;10337098;28;20089;-60
2021/10/02 19:37:08;;;;;;;5.00;4.50;;;;;;;19.44;54.35;99168.25;10339559;28;20066;-57
2021/10/02 19:42:12;;;;;;;5.22;3.78;;;;;;;19.41;54.47;99166.81;10337739;28;20077;-59
2021/10/02 19:47:13;;;;;;;4.45;3.72;;;;;;;19.50;54.78;99172.00;10334565;28;20129;-59
2021/10/02 19:52:15;;;;;;;6.85;4.00;;;;;;;19.49;54.16;99154.16;10333593;28;20140;-57
2021/10/02 19:57:17;;;;;;;4.20;3.58;;;;;;;19.46;54.83;99155.41;10336950;28;20531;-62
2021/10/02 20:02:19;;;;;;;4.10;3.70;;;;;;;19.40;54.52;99148.97;10335458;28;20129;-59
2021/10/02 20:07:20;;;;;;;5.43;3.85;;;;;;;19.37;54.76;99143.16;10336017;28;22961;-57
2021/10/02 20:12:22;;;;;;;4.95;3.38;;;;;;;19.33;54.95;99129.25;10336388;28;20135;-61
2021/10/02 20:17:26;;;;;;;4.90;4.15;;;;;;;19.25;55.28;99122.19;10336791;28;20104;-58
2021/10/02 20:22:29;;;;;;;4.47;4.07;;;;;;;19.22;55.69;99111.00;10335828;28;20135;-57
2021/10/02 20:27:30;;;;;;;6.43;4.37;;;;;;;19.15;55.60;99091.28;10336063;28;20504;-59
2021/10/02 20:32:32;;;;;;;5.40;4.50;;;;;;;19.22;55.38;99092.13;10338343;28;20592;-57
2021/10/02 20:37:35;;;;;;;5.15;4.65;;;;;;;19.20;56.01;99080.69;10337467;28;20150;-60
2021/10/02 20:42:38;;;;;;;4.68;4.03;;;;;;;19.20;56.13;99075.28;10335753;28;20110;-60
2021/10/02 20:47:42;;;;;;;4.60;4.20;;;;;;;19.20;55.59;99081.53;10330922;28;20133;-59
2021/10/02 20:52:45;;;;;;;4.28;3.88;;;;;;;19.12;56.47;99072.81;10331142;28;20467;-58
2021/10/02 20:57:50;;;;;;;4.27;3.87;;;;;;;19.21;56.36;99099.38;10336206;28;20089;-58
2021/10/02 21:02:54;;;;;;;4.65;3.53;;;;;;;19.23;55.45;99091.91;10369791;28;20053;-58
2021/10/02 21:08:00;;;;;;;4.63;3.85;;;;;;;19.16;55.86;99111.84;10376169;28;20068;-60
2021/10/02 21:13:02;;;;;;;4.72;4.28;;;;;;;19.15;56.19;99112.84;10376317;28;20084;-59
2021/10/02 21:18:03;;;;;;;4.20;3.90;;;;;;;19.08;56.39;99089.41;10376914;28;20269;-57
2021/10/02 21:23:04;;;;;;;3.95;3.55;;;;;;;19.16;56.95;99090.25;10375848;28;20136;-59
2021/10/02 21:28:07;;;;;;;4.65;4.20;;;;;;;19.24;56.05;99092.72;10372064;28;20175;-60
2021/10/02 21:33:08;;;;;;;3.92;3.50;;;;;;;19.28;56.23;99093.16;10373819;28;20554;-58
2021/10/02 21:38:12;;;;;;;6.72;4.30;;;;;;;19.14;56.01;99081.53;10370353;28;22384;-59
2021/10/02 21:43:14;;;;;;;6.00;4.28;;;;;;;19.21;57.10;99082.34;10366692;28;20161;-59
2021/10/02 21:48:16;;;;;;;7.30;4.78;;;;;;;19.27;57.47;99069.91;10371314;28;20155;-60
2021/10/02 21:53:18;;;;;;;6.30;4.60;;;;;;;19.23;57.71;99058.69;10371735;28;20037;-59
2021/10/02 21:58:20;;;;;;;4.45;3.90;;;;;;;19.22;56.88;99067.84;10371995;28;20549;-60
2021/10/02 22:03:22;;;;;;;4.75;4.30;;;;;;;19.20;57.20;99069.91;10374260;28;20099;-58
2021/10/02 22:08:23;;;;;;;5.50;4.55;;;;;;;19.20;56.84;99073.44;10350744;28;20553;-58
2021/10/02 22:13:25;;;;;;;5.35;4.47;;;;;;;19.14;57.56;99060.78;10359002;28;20132;-56
2021/10/02 22:18:28;;;;;;;5.93;5.18;;;;;;;19.14;57.29;99066.19;10370572;28;20073;-58
2021/10/02 22:23:30;;;;;;;5.95;5.45;;;;;;;19.11;57.30;99058.53;10361344;28;20129;-56
2021/10/02 22:28:33;;;;;;;6.00;4.88;;;;;;;19.06;56.98;99058.28;10371820;28;20124;-56
2021/10/02 22:33:34;;;;;;;4.72;4.30;;;;;;;19.07;57.41;99055.38;10378780;28;20136;-56
2021/10/02 22:38:37;;;;;;;4.85;4.30;;;;;;;19.06;57.50;99042.13;10381496;28;20053;-56
2021/10/02 22:43:38;;;;;;;4.88;4.40;;;;;;;19.02;58.00;99040.88;10380197;28;20246;-57
2021/10/02 22:48:45;;;;;;;6.28;4.57;;;;;;;19.00;58.14;99043.78;10377101;28;20589;-56
2021/10/02 22:53:47;;;;;;;4.53;3.92;;;;;;;19.02;58.32;99051.66;10376043;28;20128;-56
2021/10/02 22:58:49;;;;;;;6.00;4.30;;;;;;;18.97;58.10;99037.97;10368200;28;20137;-56
2021/10/02 23:03:51;;;;;;;4.88;4.00;;;;;;;18.94;58.04;99033.00;10378078;28;20149;-56
2021/10/02 23:08:53;;;;;;;4.43;3.90;;;;;;;19.00;58.35;99032.97;10386515;23;20619;-61
2021/10/02 23:13:55;;;;;;;5.47;3.72;;;;;;;18.97;57.89;99028.00;10356854;28;20053;-61
2021/10/02 23:19:20;;;;;;;6.93;4.13;;;;;;;18.95;58.15;99018.50;10337136;28;20078;-62
2021/10/02 23:24:26;;;;;;;5.97;4.13;;;;;;;18.99;57.71;99017.88;10291989;28;20066;-62
2021/10/02 23:29:27;;;;;;;4.22;3.83;;;;;;;19.00;57.98;99006.00;10297601;28;20137;-61
2021/10/02 23:34:28;;;;;;;4.22;3.88;;;;;;;19.02;57.62;99003.13;10297488;28;20060;-61
2021/10/02 23:39:30;;;;;;;4.10;3.70;;;;;;;19.04;57.71;98998.34;10301212;28;20054;-62
2021/10/02 23:44:33;;;;;;;4.57;3.35;;;;;;;19.13;57.37;98982.78;10293929;28;20142;-62
2021/10/02 23:49:36;;;;;;;4.93;3.87;;;;;;;19.16;57.14;98987.75;10293480;28;20133;-61
2021/10/02 23:54:48;;;;;;;4.10;3.70;;;;;;;19.19;57.07;98977.38;10300758;28;20653;-62
2021/10/02 23:59:55;;;;;;;3.60;3.15;;;;;;;19.23;56.80;98993.94;10292180;28;20038;-62
